Terminal Aerodrome Forecast
Issued by NWS

Home | Current Version | Previous Version | Text Only | Print | Product List | Glossary On
Versions: 1 2 3 4 5 6 7 8 9 10 11 12
000
FTUS45 KABQ 310500
TAFGUP
TAF
KGUP 310520Z 3106/0106 22006KT P6SM FEW250
     FM311600 23012G22KT P6SM SKC
     FM311900 23018G30KT P6SM SCT090
     FM010200 23008KT P6SM SKC=

USA.gov is the U.S. government's official web portal to all federal, state and local government web resources and services.